Time;durP1;ratioP1;P1;durP2;ratioP2;P2;SDS_P1;SDS_P2;PMS_P1;PMS_P2;Temp;Humidity;BMP_temperature;BMP_pressure;BME280_temperature;BME280_humidity;BME280_pressure;Samples;Min_cycle;Max_cycle;Signal;HPM_P1;HPM_P2
2022/08/06 00:02:35;;;;;;;18.08;13.95;;;;;;;;;;5044225;28;20212;-63
2022/08/06 00:05:04;;;;;;;19.33;14.13;;;;;;;;;;5047889;28;20225;-64
2022/08/06 00:07:33;;;;;;;17.10;14.25;;;;;;;;;;5040362;28;20254;-64
2022/08/06 00:10:12;;;;;;;19.65;13.93;;;;;;;;;;5053998;28;20220;-65
2022/08/06 00:12:40;;;;;;;18.27;14.75;;;;;;;;;;5049353;28;20686;-64
2022/08/06 00:15:08;;;;;;;16.98;12.75;;;;;;;;;;5061449;28;20266;-64
2022/08/06 00:17:43;;;;;;;15.20;12.52;;;;;;;;;;5058143;28;20229;-65
2022/08/06 00:20:11;;;;;;;16.88;13.18;;;;;;;;;;5045135;28;20419;-65
2022/08/06 00:22:58;;;;;;;15.60;11.98;;;;;;;;;;5041206;28;20235;-65
2022/08/06 00:25:25;;;;;;;15.23;11.60;;;;;;;;;;5037298;28;20255;-65
2022/08/06 00:27:55;;;;;;;14.02;11.15;;;;;;;;;;5043745;28;20322;-65
2022/08/06 00:30:23;;;;;;;11.85;10.50;;;;;;;;;;5044426;28;20269;-66
2022/08/06 00:32:51;;;;;;;12.50;11.20;;;;;;;;;;5050276;28;21447;-66
2022/08/06 00:35:20;;;;;;;13.50;11.02;;;;;;;;;;5039943;28;20691;-65
2022/08/06 00:37:54;;;;;;;14.13;11.52;;;;;;;;;;5053548;28;20275;-65
2022/08/06 00:40:29;;;;;;;13.85;12.35;;;;;;;;;;5043764;28;20326;-65
2022/08/06 00:42:58;;;;;;;12.30;10.98;;;;;;;;;;5044750;28;21145;-63
2022/08/06 00:45:28;;;;;;;13.80;10.50;;;;;;;;;;5043506;28;20221;-64
2022/08/06 00:47:57;;;;;;;12.63;10.10;;;;;;;;;;5068845;28;20267;-64
2022/08/06 00:50:33;;;;;;;11.55;9.85;;;;;;;;;;5051407;28;20305;-64
2022/08/06 00:53:01;;;;;;;12.50;10.03;;;;;;;;;;5049110;28;20205;-64
2022/08/06 00:55:30;;;;;;;12.15;9.38;;;;;;;;;;5050803;28;20691;-65
2022/08/06 00:58:03;;;;;;;10.13;9.10;;;;;;;;;;5064083;28;20299;-65
2022/08/06 01:00:31;;;;;;;10.17;9.07;;;;;;;;;;5045619;28;20817;-65
2022/08/06 01:03:07;;;;;;;11.20;9.43;;;;;;;;;;5047537;28;20676;-64
2022/08/06 01:05:54;;;;;;;11.27;9.60;;;;;;;;;;5075691;28;20202;-65
2022/08/06 01:08:42;;;;;;;10.67;8.77;;;;;;;;;;5065234;28;20218;-64
2022/08/06 01:11:11;;;;;;;10.40;8.47;;;;;;;;;;5062124;28;20209;-65
2022/08/06 01:13:39;;;;;;;11.07;8.77;;;;;;;;;;5048856;28;20568;-65
2022/08/06 01:16:37;;;;;;;8.67;7.47;;;;;;;;;;5053990;28;20652;-66
2022/08/06 01:19:11;;;;;;;9.57;7.83;;;;;;;;;;5059047;28;20314;-64
2022/08/06 01:22:05;;;;;;;8.40;7.60;;;;;;;;;;5068954;28;20197;-65
2022/08/06 01:25:11;;;;;;;8.47;7.63;;;;;;;;;;5042977;28;20652;-65
2022/08/06 01:27:44;;;;;;;9.43;7.77;;;;;;;;;;5059718;28;20278;-65
2022/08/06 01:30:16;;;;;;;8.50;7.60;;;;;;;;;;5060447;28;20206;-64
2022/08/06 01:32:57;;;;;;;9.03;8.13;;;;;;;;;;5059334;28;20240;-65
2022/08/06 01:35:31;;;;;;;8.37;7.00;;;;;;;;;;5056735;28;20206;-64
2022/08/06 01:38:30;;;;;;;13.17;7.90;;;;;;;;;;5051235;28;20788;-65
2022/08/06 01:41:05;;;;;;;9.93;7.70;;;;;;;;;;5057327;28;20347;-65
2022/08/06 01:43:33;;;;;;;11.83;7.60;;;;;;;;;;5045788;28;20227;-65
2022/08/06 01:46:20;;;;;;;8.03;7.00;;;;;;;;;;5046155;28;20217;-65
2022/08/06 01:48:50;;;;;;;9.17;6.70;;;;;;;;;;5055151;28;20245;-65
2022/08/06 01:51:21;;;;;;;6.77;6.07;;;;;;;;;;5055077;28;20265;-64
2022/08/06 01:54:09;;;;;;;7.23;5.40;;;;;;;;;;5050894;28;20214;-65
2022/08/06 01:56:41;;;;;;;7.43;6.00;;;;;;;;;;5056725;28;20643;-65
2022/08/06 01:59:25;;;;;;;5.60;5.10;;;;;;;;;;5045738;28;20562;-65
2022/08/06 02:01:54;;;;;;;5.17;4.67;;;;;;;;;;5039174;28;20750;-65
2022/08/06 02:04:26;;;;;;;6.07;4.57;;;;;;;;;;5042495;28;20213;-65
2022/08/06 02:06:54;;;;;;;7.67;5.00;;;;;;;;;;5042926;28;20201;-65
2022/08/06 02:09:23;;;;;;;5.80;4.50;;;;;;;;;;5059018;28;20271;-65
2022/08/06 02:12:02;;;;;;;5.43;4.50;;;;;;;;;;5053657;28;20210;-65
2022/08/06 02:14:35;;;;;;;6.13;4.57;;;;;;;;;;5052229;28;20702;-65
2022/08/06 02:17:04;;;;;;;5.33;4.83;;;;;;;;;;5057480;28;20725;-65
2022/08/06 02:19:45;;;;;;;4.97;4.57;;;;;;;;;;5049023;28;20678;-65
2022/08/06 02:22:27;;;;;;;4.53;4.13;;;;;;;;;;5054554;28;20202;-65
2022/08/06 02:25:00;;;;;;;5.03;4.03;;;;;;;;;;5036315;28;20221;-65
2022/08/06 02:27:29;;;;;;;5.63;4.33;;;;;;;;;;5056142;28;20258;-65
2022/08/06 02:30:11;;;;;;;5.00;4.60;;;;;;;;;;5049496;28;20304;-65
2022/08/06 02:32:38;;;;;;;5.57;4.90;;;;;;;;;;5055045;28;20210;-65
2022/08/06 02:35:09;;;;;;;6.27;4.83;;;;;;;;;;5058789;28;20238;-65
2022/08/06 02:37:50;;;;;;;5.40;4.87;;;;;;;;;;5053819;28;20229;-65
2022/08/06 02:40:35;;;;;;;5.30;4.87;;;;;;;;;;5051138;28;20944;-65
2022/08/06 02:43:09;;;;;;;5.80;5.13;;;;;;;;;;5054682;28;20197;-65
2022/08/06 02:45:39;;;;;;;5.90;5.40;;;;;;;;;;5035287;28;20210;-64
2022/08/06 02:48:50;;;;;;;7.03;5.30;;;;;;;;;;5042399;28;20240;-65
2022/08/06 02:51:26;;;;;;;7.37;4.53;;;;;;;;;;5012968;28;20211;-65
2022/08/06 02:54:16;;;;;;;5.10;4.50;;;;;;;;;;5049952;28;21019;-65
2022/08/06 02:56:45;;;;;;;6.33;4.13;;;;;;;;;;5050602;28;20272;-64
2022/08/06 02:59:15;;;;;;;7.20;4.70;;;;;;;;;;5055994;28;20217;-65
2022/08/06 03:01:50;;;;;;;5.70;4.20;;;;;;;;;;5044430;28;20717;-64
2022/08/06 03:04:19;;;;;;;6.90;4.17;;;;;;;;;;5052010;28;20259;-64
2022/08/06 03:07:00;;;;;;;4.97;3.63;;;;;;;;;;5036261;28;20216;-65
2022/08/06 03:09:28;;;;;;;5.47;3.83;;;;;;;;;;5057548;28;20514;-64
2022/08/06 03:12:00;;;;;;;4.87;4.37;;;;;;;;;;5046537;28;20214;-64
2022/08/06 03:14:28;;;;;;;5.17;3.93;;;;;;;;;;5051992;28;21503;-65
2022/08/06 03:17:17;;;;;;;5.93;4.40;;;;;;;;;;5057596;28;20331;-64
2022/08/06 03:19:46;;;;;;;4.07;3.77;;;;;;;;;;5059198;28;20206;-64
2022/08/06 03:22:26;;;;;;;4.90;3.97;;;;;;;;;;5044250;28;20219;-64
2022/08/06 03:25:11;;;;;;;3.80;3.50;;;;;;;;;;5052751;28;20227;-64
2022/08/06 03:27:39;;;;;;;4.27;3.87;;;;;;;;;;5061312;28;20221;-64
2022/08/06 03:30:14;;;;;;;4.23;3.73;;;;;;;;;;5048411;28;20621;-64
2022/08/06 03:33:04;;;;;;;4.67;3.80;;;;;;;;;;5062483;28;20254;-65
2022/08/06 03:35:53;;;;;;;6.30;4.00;;;;;;;;;;5057188;28;20210;-65
2022/08/06 03:38:21;;;;;;;4.47;3.57;;;;;;;;;;5054013;28;20256;-65
2022/08/06 03:40:56;;;;;;;5.83;3.53;;;;;;;;;;5061316;28;20275;-64
2022/08/06 03:43:23;;;;;;;4.30;3.90;;;;;;;;;;5054701;28;20205;-65
2022/08/06 03:45:59;;;;;;;5.90;4.20;;;;;;;;;;5060084;28;20214;-64
2022/08/06 03:48:29;;;;;;;4.00;3.67;;;;;;;;;;5061328;28;20715;-64
2022/08/06 03:51:06;;;;;;;4.20;3.80;;;;;;;;;;5059342;28;20707;-64
2022/08/06 03:53:37;;;;;;;7.23;4.27;;;;;;;;;;5040848;28;20205;-65
2022/08/06 03:56:10;;;;;;;4.17;3.27;;;;;;;;;;5049585;28;20553;-65
2022/08/06 03:58:42;;;;;;;4.67;3.37;;;;;;;;;;5064522;28;20732;-64
2022/08/06 04:01:11;;;;;;;4.00;3.60;;;;;;;;;;5053517;28;20229;-64
2022/08/06 04:03:40;;;;;;;4.97;3.37;;;;;;;;;;5063828;28;20205;-64
2022/08/06 04:06:11;;;;;;;4.17;3.80;;;;;;;;;;5046070;28;20649;-65
2022/08/06 04:08:42;;;;;;;4.67;3.50;;;;;;;;;;5045535;28;20229;-64
2022/08/06 04:11:12;;;;;;;5.80;3.40;;;;;;;;;;5047187;28;21551;-64
2022/08/06 04:14:00;;;;;;;3.83;3.40;;;;;;;;;;5058332;28;20259;-65
2022/08/06 04:16:34;;;;;;;4.93;3.50;;;;;;;;;;5051032;28;20205;-65
2022/08/06 04:19:05;;;;;;;5.53;3.73;;;;;;;;;;5057683;28;20286;-65
2022/08/06 04:21:35;;;;;;;6.37;3.63;;;;;;;;;;5060514;28;20291;-64
2022/08/06 04:24:23;;;;;;;4.20;3.40;;;;;;;;;;5043387;28;20201;-65
2022/08/06 04:26:59;;;;;;;5.83;3.70;;;;;;;;;;5047697;28;20709;-65
2022/08/06 04:29:33;;;;;;;4.23;3.50;;;;;;;;;;5056010;28;20217;-65
2022/08/06 04:32:21;;;;;;;3.80;3.50;;;;;;;;;;5045096;28;20197;-63
2022/08/06 04:34:58;;;;;;;4.70;3.60;;;;;;;;;;5057032;28;20300;-66
2022/08/06 04:37:46;;;;;;;4.27;3.33;;;;;;;;;;5058784;28;20224;-63
2022/08/06 04:40:19;;;;;;;5.20;3.80;;;;;;;;;;5072190;28;20213;-64
2022/08/06 04:43:02;;;;;;;4.10;3.63;;;;;;;;;;5065906;28;20225;-65
2022/08/06 04:45:30;;;;;;;5.07;3.50;;;;;;;;;;5055958;28;20214;-65
2022/08/06 04:48:18;;;;;;;4.30;3.30;;;;;;;;;;5040804;28;20221;-65
2022/08/06 04:50:47;;;;;;;5.20;3.60;;;;;;;;;;5053871;28;20338;-64
2022/08/06 04:53:20;;;;;;;4.00;3.30;;;;;;;;;;5053837;28;20233;-63
2022/08/06 04:56:08;;;;;;;4.00;3.63;;;;;;;;;;5038592;28;21129;-65
2022/08/06 04:58:42;;;;;;;5.43;3.43;;;;;;;;;;5039538;28;20780;-65
2022/08/06 05:01:09;;;;;;;4.23;3.50;;;;;;;;;;5040625;28;20229;-64
2022/08/06 05:03:38;;;;;;;3.90;3.60;;;;;;;;;;5034689;28;20210;-65
2022/08/06 05:06:45;;;;;;;3.77;3.37;;;;;;;;;;5042766;28;20201;-63
2022/08/06 05:09:24;;;;;;;4.37;3.63;;;;;;;;;;5056107;28;20229;-65
2022/08/06 05:12:24;;;;;;;3.83;3.53;;;;;;;;;;5041070;28;20694;-65
2022/08/06 05:15:12;;;;;;;3.97;3.57;;;;;;;;;;5059625;28;20753;-65
2022/08/06 05:17:58;;;;;;;4.57;3.80;;;;;;;;;;5029223;28;20320;-63
2022/08/06 05:20:27;;;;;;;3.60;3.30;;;;;;;;;;5062448;28;20212;-63
2022/08/06 05:23:04;;;;;;;3.93;3.53;;;;;;;;;;5050710;28;20213;-62
2022/08/06 05:25:45;;;;;;;6.70;3.57;;;;;;;;;;5044454;28;20198;-65
2022/08/06 05:28:20;;;;;;;4.30;3.40;;;;;;;;;;5027829;28;20275;-65
2022/08/06 05:30:51;;;;;;;4.20;3.57;;;;;;;;;;5041236;28;20267;-65
2022/08/06 05:33:26;;;;;;;3.93;3.40;;;;;;;;;;5017034;28;20292;-65
2022/08/06 05:35:56;;;;;;;4.37;3.43;;;;;;;;;;5033690;28;20209;-64
2022/08/06 05:38:32;;;;;;;4.83;3.23;;;;;;;;;;5029359;28;20594;-64
2022/08/06 05:41:03;;;;;;;6.83;3.43;;;;;;;;;;5041490;28;20229;-64
2022/08/06 05:43:33;;;;;;;4.30;3.20;;;;;;;;;;5047577;28;20201;-64
2022/08/06 05:46:22;;;;;;;5.43;3.07;;;;;;;;;;5048862;28;20209;-64
2022/08/06 05:48:54;;;;;;;3.97;2.90;;;;;;;;;;5054066;28;20225;-64
2022/08/06 05:51:48;;;;;;;5.30;3.40;;;;;;;;;;5048723;28;20210;-65
2022/08/06 05:54:24;;;;;;;3.77;3.47;;;;;;;;;;5064627;28;20220;-66
2022/08/06 05:56:56;;;;;;;4.80;3.43;;;;;;;;;;5050603;28;20209;-64
2022/08/06 05:59:33;;;;;;;3.37;3.07;;;;;;;;;;5030534;28;20247;-65
2022/08/06 06:02:22;;;;;;;3.00;2.80;;;;;;;;;;5044292;28;20226;-66
2022/08/06 06:04:51;;;;;;;4.60;3.30;;;;;;;;;;5043709;28;20216;-65
2022/08/06 06:07:39;;;;;;;5.50;3.30;;;;;;;;;;5044253;28;20356;-66
2022/08/06 06:10:29;;;;;;;4.43;3.07;;;;;;;;;;5046834;28;20230;-62
2022/08/06 06:13:00;;;;;;;3.93;3.27;;;;;;;;;;5056789;28;20205;-65
2022/08/06 06:15:29;;;;;;;4.73;3.20;;;;;;;;;;5050302;28;20214;-65
2022/08/06 06:18:23;;;;;;;4.23;3.40;;;;;;;;;;5052486;28;20251;-65
2022/08/06 06:21:19;;;;;;;5.57;3.40;;;;;;;;;;5049920;28;20208;-65
2022/08/06 06:24:02;;;;;;;4.20;3.23;;;;;;;;;;5051136;28;20198;-64
2022/08/06 06:26:36;;;;;;;5.20;3.20;;;;;;;;;;5071617;28;20202;-66
2022/08/06 06:29:22;;;;;;;3.70;3.33;;;;;;;;;;5066260;28;20271;-66
2022/08/06 06:32:12;;;;;;;6.17;3.40;;;;;;;;;;5054857;28;20290;-66
2022/08/06 06:35:09;;;;;;;3.50;3.20;;;;;;;;;;5060445;28;20212;-65
2022/08/06 06:37:50;;;;;;;5.10;3.50;;;;;;;;;;5067026;28;20229;-66
2022/08/06 06:40:35;;;;;;;3.97;3.57;;;;;;;;;;5064636;28;20667;-65
2022/08/06 06:43:06;;;;;;;5.27;3.13;;;;;;;;;;5070751;28;20266;-65
2022/08/06 06:45:37;;;;;;;3.67;3.37;;;;;;;;;;5078117;28;20694;-63
2022/08/06 06:48:36;;;;;;;4.40;3.57;;;;;;;;;;5071212;28;20228;-65
2022/08/06 06:51:07;;;;;;;4.13;3.43;;;;;;;;;;5064936;28;20202;-66
2022/08/06 06:53:54;;;;;;;4.20;3.80;;;;;;;;;;5059381;28;20742;-65
2022/08/06 06:56:37;;;;;;;6.47;3.93;;;;;;;;;;5066927;28;20263;-66
2022/08/06 06:59:20;;;;;;;6.37;3.67;;;;;;;;;;5068567;28;20225;-65
2022/08/06 07:01:53;;;;;;;4.27;3.70;;;;;;;;;;5053805;28;20292;-66
2022/08/06 07:04:22;;;;;;;6.77;3.77;;;;;;;;;;5044901;28;20251;-66
2022/08/06 07:06:55;;;;;;;4.32;3.88;;;;;;;;;;5033336;28;20197;-66
2022/08/06 07:09:28;;;;;;;4.10;3.70;;;;;;;;;;5066050;28;20216;-66
2022/08/06 07:12:11;;;;;;;6.43;4.18;;;;;;;;;;5059872;28;20215;-66
2022/08/06 07:14:53;;;;;;;4.20;3.80;;;;;;;;;;5061058;28;20299;-67
2022/08/06 07:17:28;;;;;;;3.87;3.57;;;;;;;;;;5060462;28;20312;-66
2022/08/06 07:20:17;;;;;;;4.27;3.87;;;;;;;;;;5054616;28;20656;-66
2022/08/06 07:22:47;;;;;;;5.35;3.45;;;;;;;;;;5057646;28;20229;-66
2022/08/06 07:25:41;;;;;;;4.93;4.10;;;;;;;;;;5044914;28;20198;-65
2022/08/06 07:28:25;;;;;;;5.38;3.67;;;;;;;;;;5047317;28;20597;-67
2022/08/06 07:30:55;;;;;;;7.07;4.27;;;;;;;;;;5053174;28;20297;-67
2022/08/06 07:33:30;;;;;;;5.13;4.57;;;;;;;;;;5060677;28;20208;-66
2022/08/06 07:36:18;;;;;;;4.57;4.03;;;;;;;;;;5064618;28;20741;-65
2022/08/06 07:38:46;;;;;;;5.45;3.78;;;;;;;;;;5060989;28;20226;-66
2022/08/06 07:41:15;;;;;;;4.75;4.32;;;;;;;;;;5051038;28;20212;-64
2022/08/06 07:43:59;;;;;;;4.83;4.30;;;;;;;;;;5065161;28;20713;-65
2022/08/06 07:46:28;;;;;;;4.60;4.10;;;;;;;;;;5046259;28;21387;-66
2022/08/06 07:48:58;;;;;;;6.07;4.50;;;;;;;;;;5068097;28;20257;-65
2022/08/06 07:51:27;;;;;;;6.25;4.18;;;;;;;;;;5044206;28;20652;-66
2022/08/06 07:54:01;;;;;;;4.82;4.32;;;;;;;;;;5059201;28;20203;-65
2022/08/06 07:56:40;;;;;;;4.85;4.45;;;;;;;;;;5033940;28;20903;-64
2022/08/06 07:59:28;;;;;;;4.57;4.18;;;;;;;;;;5070095;28;20229;-64
2022/08/06 08:01:58;;;;;;;4.68;3.97;;;;;;;;;;5048972;28;20237;-65
2022/08/06 08:07:21;;;;;;;3.85;3.42;;;;;;;;;;5058720;28;20217;-65
2022/08/06 08:10:08;;;;;;;4.38;3.97;;;;;;;;;;5064594;28;20197;-65
2022/08/06 08:12:37;;;;;;;4.40;3.92;;;;;;;;;;5045498;28;20202;-66
2022/08/06 08:15:06;;;;;;;5.40;4.30;;;;;;;;;;5069379;28;20592;-66
2022/08/06 08:17:45;;;;;;;7.15;4.32;;;;;;;;;;5052077;28;20225;-66
2022/08/06 08:20:25;;;;;;;5.82;4.45;;;;;;;;;;5058187;28;20257;-66
2022/08/06 08:23:00;;;;;;;4.55;4.25;;;;;;;;;;5049680;28;20702;-66
2022/08/06 08:25:27;;;;;;;4.53;4.10;;;;;;;;;;5047555;28;20259;-66
2022/08/06 08:28:09;;;;;;;5.72;4.43;;;;;;;;;;5060490;28;21256;-65
2022/08/06 08:30:42;;;;;;;7.68;4.05;;;;;;;;;;5065932;28;20579;-65
2022/08/06 08:33:15;;;;;;;5.20;3.60;;;;;;;;;;5068992;28;20209;-64
2022/08/06 08:35:45;;;;;;;4.55;4.15;;;;;;;;;;5050240;28;20198;-65
2022/08/06 08:38:27;;;;;;;4.70;4.10;;;;;;;;;;5065463;28;20231;-65
2022/08/06 08:40:56;;;;;;;4.60;3.80;;;;;;;;;;5055005;28;20220;-65
2022/08/06 08:43:34;;;;;;;6.35;3.78;;;;;;;;;;5062130;28;20217;-65
2022/08/06 08:46:23;;;;;;;5.60;4.10;;;;;;;;;;5052814;28;20214;-65
2022/08/06 08:48:58;;;;;;;6.70;4.20;;;;;;;;;;5052915;28;20222;-64
2022/08/06 08:51:27;;;;;;;5.25;4.30;;;;;;;;;;5062197;28;20193;-64
2022/08/06 08:53:55;;;;;;;4.40;4.05;;;;;;;;;;5042076;28;20299;-64
2022/08/06 08:56:25;;;;;;;6.13;4.18;;;;;;;;;;5059118;28;20293;-63
2022/08/06 08:59:13;;;;;;;6.00;4.10;;;;;;;;;;5051625;28;20229;-65
2022/08/06 09:02:00;;;;;;;4.50;4.00;;;;;;;;;;5062342;28;20225;-66
2022/08/06 09:04:27;;;;;;;4.60;4.20;;;;;;;;;;5063228;28;20229;-66
2022/08/06 09:06:55;;;;;;;4.60;4.13;;;;;;;;;;5050023;28;20265;-66
2022/08/06 09:09:23;;;;;;;4.75;4.18;;;;;;;;;;5042705;28;20236;-65
2022/08/06 09:11:59;;;;;;;4.90;3.97;;;;;;;;;;5045776;28;20216;-65
2022/08/06 09:14:46;;;;;;;4.03;3.72;;;;;;;;;;5048220;28;20213;-66
2022/08/06 09:17:16;;;;;;;5.38;4.32;;;;;;;;;;5046851;28;20210;-65
2022/08/06 09:20:04;;;;;;;5.07;4.32;;;;;;;;;;5062710;28;20251;-66
2022/08/06 09:22:34;;;;;;;4.80;4.40;;;;;;;;;;5069428;28;20308;-64
2022/08/06 09:25:03;;;;;;;5.35;3.97;;;;;;;;;;5046259;28;20603;-66
2022/08/06 09:27:35;;;;;;;4.28;3.88;;;;;;;;;;5064282;28;20259;-65
2022/08/06 09:30:17;;;;;;;4.45;4.00;;;;;;;;;;5053617;28;20205;-66
2022/08/06 09:32:57;;;;;;;4.65;3.80;;;;;;;;;;5063119;28;20690;-65
2022/08/06 09:35:31;;;;;;;5.20;4.20;;;;;;;;;;5059164;28;20210;-66
2022/08/06 09:38:12;;;;;;;5.05;4.13;;;;;;;;;;5063910;28;20230;-66
2022/08/06 09:41:03;;;;;;;6.47;4.07;;;;;;;;;;5054093;28;20209;-64
2022/08/06 09:43:33;;;;;;;4.35;4.00;;;;;;;;;;5061227;28;20286;-65
2022/08/06 09:46:39;;;;;;;4.70;4.20;;;;;;;;;;5068401;28;20201;-65
2022/08/06 09:49:08;;;;;;;3.90;3.60;;;;;;;;;;5056376;28;20244;-65
2022/08/06 09:52:12;;;;;;;4.60;3.45;;;;;;;;;;5066188;28;20273;-66
2022/08/06 09:54:40;;;;;;;4.90;3.97;;;;;;;;;;5065195;28;20212;-65
2022/08/06 09:57:08;;;;;;;5.43;3.97;;;;;;;;;;5063174;28;20201;-65
2022/08/06 09:59:46;;;;;;;5.18;4.00;;;;;;;;;;5057284;28;20713;-65
2022/08/06 10:02:17;;;;;;;4.00;3.72;;;;;;;;;;5045940;28;20222;-64
2022/08/06 10:05:07;;;;;;;5.45;4.13;;;;;;;;;;5062491;28;20198;-65
2022/08/06 10:07:45;;;;;;;4.72;3.80;;;;;;;;;;5067455;28;20228;-65
2022/08/06 10:10:13;;;;;;;3.65;3.25;;;;;;;;;;5062996;28;20237;-65
2022/08/06 10:13:11;;;;;;;3.72;3.42;;;;;;;;;;5065607;28;20209;-65
2022/08/06 10:15:38;;;;;;;4.97;3.35;;;;;;;;;;5061419;28;20710;-68
2022/08/06 10:18:30;;;;;;;5.88;4.35;;;;;;;;;;5049251;28;20313;-63
2022/08/06 10:21:18;;;;;;;3.67;3.30;;;;;;;;;;5052776;28;20232;-65
2022/08/06 10:23:54;;;;;;;4.15;3.75;;;;;;;;;;5068114;28;20649;-65
2022/08/06 10:26:26;;;;;;;3.33;3.08;;;;;;;;;;5049673;28;20611;-67
2022/08/06 10:29:01;;;;;;;4.78;3.50;;;;;;;;;;5070486;28;20320;-66
2022/08/06 10:31:29;;;;;;;4.22;3.80;;;;;;;;;;5062685;28;20204;-65
2022/08/06 10:34:01;;;;;;;4.60;4.00;;;;;;;;;;5050934;28;20210;-65
2022/08/06 10:36:37;;;;;;;4.60;4.00;;;;;;;;;;5047668;28;20619;-65
2022/08/06 10:39:07;;;;;;;6.55;3.80;;;;;;;;;;5058591;28;20264;-67
2022/08/06 10:41:55;;;;;;;4.30;3.90;;;;;;;;;;5065273;28;20208;-64
2022/08/06 10:44:31;;;;;;;4.18;3.42;;;;;;;;;;5054593;28;20316;-64
2022/08/06 10:47:05;;;;;;;4.45;3.78;;;;;;;;;;5068779;28;20279;-66
2022/08/06 10:49:33;;;;;;;4.57;3.83;;;;;;;;;;5059820;28;20225;-65
2022/08/06 10:52:22;;;;;;;3.92;3.47;;;;;;;;;;5044854;28;20205;-66
2022/08/06 10:54:51;;;;;;;3.83;3.47;;;;;;;;;;5049741;28;20469;-66
2022/08/06 10:57:19;;;;;;;3.90;3.42;;;;;;;;;;5062138;28;20218;-64
2022/08/06 11:00:04;;;;;;;4.30;3.53;;;;;;;;;;5071999;28;20401;-65
2022/08/06 11:02:51;;;;;;;4.20;3.42;;;;;;;;;;5068442;28;20268;-64
2022/08/06 11:05:25;;;;;;;3.88;3.45;;;;;;;;;;5052247;28;20204;-64
2022/08/06 11:08:12;;;;;;;4.07;3.20;;;;;;;;;;5045837;28;20682;-65
2022/08/06 11:10:54;;;;;;;5.43;3.58;;;;;;;;;;5045655;28;20196;-65
2022/08/06 11:13:22;;;;;;;3.67;3.03;;;;;;;;;;5048302;28;20221;-66
2022/08/06 11:16:03;;;;;;;5.13;3.60;;;;;;;;;;5049220;28;20658;-65
2022/08/06 11:18:30;;;;;;;3.70;3.40;;;;;;;;;;5065975;28;20238;-66
2022/08/06 11:21:01;;;;;;;3.70;3.50;;;;;;;;;;5066077;28;20209;-66
2022/08/06 11:23:30;;;;;;;6.53;3.40;;;;;;;;;;5062163;28;20222;-66
2022/08/06 11:26:33;;;;;;;3.33;3.00;;;;;;;;;;5061643;28;20209;-66
2022/08/06 11:29:06;;;;;;;4.10;3.42;;;;;;;;;;5076867;28;20303;-66
2022/08/06 11:31:43;;;;;;;5.05;3.58;;;;;;;;;;5071108;28;20208;-64
2022/08/06 11:34:40;;;;;;;3.30;3.00;;;;;;;;;;5050394;28;20767;-65
2022/08/06 11:37:37;;;;;;;3.67;3.33;;;;;;;;;;5047591;28;20213;-64
2022/08/06 11:40:25;;;;;;;4.03;3.42;;;;;;;;;;5062558;28;20228;-67
2022/08/06 11:42:55;;;;;;;4.50;2.90;;;;;;;;;;5059999;28;20314;-66
2022/08/06 11:45:23;;;;;;;4.88;2.80;;;;;;;;;;5056754;28;20218;-66
2022/08/06 11:48:12;;;;;;;3.10;2.80;;;;;;;;;;5068783;28;20228;-66
2022/08/06 11:51:18;;;;;;;3.10;2.90;;;;;;;;;;5061592;28;20288;-66
2022/08/06 11:54:12;;;;;;;3.10;2.90;;;;;;;;;;5060226;28;20264;-65
2022/08/06 11:56:59;;;;;;;3.95;2.83;;;;;;;;;;5051064;28;20205;-65
2022/08/06 11:59:27;;;;;;;4.20;2.88;;;;;;;;;;5063835;28;20275;-66
2022/08/06 12:01:57;;;;;;;4.28;3.20;;;;;;;;;;5057175;28;20677;-66
2022/08/06 12:04:35;;;;;;;4.78;3.22;;;;;;;;;;5065306;28;20313;-66
2022/08/06 12:07:15;;;;;;;3.78;3.25;;;;;;;;;;5076267;28;20678;-65
2022/08/06 12:09:44;;;;;;;3.05;2.83;;;;;;;;;;5061211;28;20285;-65
2022/08/06 12:12:32;;;;;;;3.00;2.75;;;;;;;;;;5066274;28;20217;-66
2022/08/06 12:15:23;;;;;;;3.05;2.78;;;;;;;;;;5060491;28;20710;-66
2022/08/06 12:18:11;;;;;;;3.83;3.00;;;;;;;;;;5063146;28;20232;-66
2022/08/06 12:20:51;;;;;;;3.85;2.88;;;;;;;;;;5051355;28;20197;-67
2022/08/06 12:23:23;;;;;;;3.05;2.75;;;;;;;;;;5063289;28;20311;-65
2022/08/06 12:26:10;;;;;;;3.15;2.90;;;;;;;;;;5065236;28;20627;-66
2022/08/06 12:28:38;;;;;;;3.38;2.83;;;;;;;;;;5056581;28;20222;-66
2022/08/06 12:31:05;;;;;;;4.00;2.83;;;;;;;;;;5064720;28;20202;-64
2022/08/06 12:33:53;;;;;;;3.67;2.90;;;;;;;;;;5063665;28;20205;-65
2022/08/06 12:36:25;;;;;;;3.35;2.70;;;;;;;;;;5053376;28;20549;-64
2022/08/06 12:39:01;;;;;;;4.63;3.00;;;;;;;;;;5056828;28;20229;-67
2022/08/06 12:41:39;;;;;;;2.90;2.60;;;;;;;;;;5049876;28;20216;-65
2022/08/06 12:44:13;;;;;;;3.10;2.80;;;;;;;;;;5071403;28;20217;-65
2022/08/06 12:46:41;;;;;;;2.97;2.63;;;;;;;;;;5063745;28;20719;-66
2022/08/06 12:49:09;;;;;;;4.40;3.05;;;;;;;;;;5049382;28;20264;-66
2022/08/06 12:51:37;;;;;;;2.80;2.30;;;;;;;;;;5055416;28;20234;-66
2022/08/06 12:54:06;;;;;;;5.22;2.90;;;;;;;;;;5058810;28;20640;-65
2022/08/06 12:56:36;;;;;;;3.90;3.05;;;;;;;;;;5067367;28;20202;-66
2022/08/06 12:59:07;;;;;;;3.00;2.80;;;;;;;;;;5057868;28;20221;-66
2022/08/06 13:01:49;;;;;;;3.08;2.88;;;;;;;;;;5069725;28;20572;-66
2022/08/06 13:04:37;;;;;;;3.10;2.90;;;;;;;;;;5046000;28;20271;-66
2022/08/06 13:07:06;;;;;;;4.63;3.00;;;;;;;;;;5064870;28;20201;-66
2022/08/06 13:09:40;;;;;;;3.42;2.92;;;;;;;;;;5048664;28;20254;-66
2022/08/06 13:12:28;;;;;;;4.80;2.80;;;;;;;;;;5079337;28;20209;-66
2022/08/06 13:15:15;;;;;;;4.28;2.70;;;;;;;;;;5050096;28;20278;-66
2022/08/06 13:18:04;;;;;;;3.67;2.72;;;;;;;;;;5054439;28;20707;-66
2022/08/06 13:20:52;;;;;;;2.28;2.10;;;;;;;;;;5077686;28;20703;-65
2022/08/06 13:23:30;;;;;;;3.30;3.00;;;;;;;;;;5061676;28;20231;-66
2022/08/06 13:26:11;;;;;;;3.15;2.22;;;;;;;;;;5060369;28;20194;-65
2022/08/06 13:29:06;;;;;;;3.15;2.58;;;;;;;;;;5052471;28;20220;-66
2022/08/06 13:32:02;;;;;;;4.03;2.85;;;;;;;;;;5059525;28;20209;-66
2022/08/06 13:34:48;;;;;;;4.50;2.28;;;;;;;;;;5044519;28;20209;-66
2022/08/06 13:37:15;;;;;;;2.78;2.58;;;;;;;;;;5050486;28;20211;-65
2022/08/06 13:39:50;;;;;;;2.67;2.47;;;;;;;;;;5060795;28;20569;-66
2022/08/06 13:42:19;;;;;;;2.95;2.38;;;;;;;;;;5051541;28;20300;-66
2022/08/06 13:44:55;;;;;;;2.58;2.38;;;;;;;;;;5046940;28;20683;-65
2022/08/06 13:47:29;;;;;;;2.55;2.25;;;;;;;;;;5044033;28;20301;-67
2022/08/06 13:50:18;;;;;;;3.75;2.35;;;;;;;;;;5049222;28;20202;-65
2022/08/06 13:52:46;;;;;;;2.97;2.50;;;;;;;;;;5052137;28;20205;-66
2022/08/06 13:55:28;;;;;;;2.63;2.40;;;;;;;;;;5054835;28;20213;-66
2022/08/06 13:58:16;;;;;;;4.00;2.97;;;;;;;;;;5038562;28;20221;-66
2022/08/06 14:00:46;;;;;;;2.63;2.42;;;;;;;;;;5045161;28;20206;-66
2022/08/06 14:03:14;;;;;;;3.58;2.67;;;;;;;;;;5055135;28;20233;-64
2022/08/06 14:05:42;;;;;;;3.25;2.38;;;;;;;;;;5050638;28;20205;-64
2022/08/06 14:08:15;;;;;;;2.90;2.25;;;;;;;;;;5048617;28;20295;-66
2022/08/06 14:11:00;;;;;;;2.75;2.53;;;;;;;;;;5047731;28;20721;-64
2022/08/06 14:13:29;;;;;;;3.20;2.60;;;;;;;;;;5054965;28;20212;-65
2022/08/06 14:16:00;;;;;;;2.58;2.38;;;;;;;;;;5074188;28;20221;-65
2022/08/06 14:18:30;;;;;;;2.78;2.28;;;;;;;;;;5058154;28;20235;-62
2022/08/06 14:21:06;;;;;;;1.92;1.70;;;;;;;;;;5054004;28;20330;-64
2022/08/06 14:23:34;;;;;;;3.00;2.38;;;;;;;;;;5057992;28;20236;-64
2022/08/06 14:26:07;;;;;;;3.47;2.30;;;;;;;;;;5046257;28;20693;-63
2022/08/06 14:28:38;;;;;;;2.47;2.28;;;;;;;;;;5050804;28;20696;-64
2022/08/06 14:31:20;;;;;;;2.15;1.90;;;;;;;;;;5054869;28;20204;-64
2022/08/06 14:33:55;;;;;;;3.15;1.98;;;;;;;;;;5053838;28;20205;-65
2022/08/06 14:36:28;;;;;;;2.85;2.05;;;;;;;;;;5040982;28;20214;-65
2022/08/06 14:38:59;;;;;;;2.55;2.08;;;;;;;;;;5055750;28;20242;-64
2022/08/06 14:44:56;;;;;;;2.15;2.05;;;;;;;;;;5054086;28;20237;-65
2022/08/06 14:47:25;;;;;;;3.55;2.50;;;;;;;;;;5034191;28;20305;-64
2022/08/06 14:50:13;;;;;;;3.90;1.85;;;;;;;;;;5051694;28;20251;-65
2022/08/06 14:52:46;;;;;;;3.40;2.08;;;;;;;;;;5056023;28;20201;-64
2022/08/06 14:55:14;;;;;;;2.22;2.03;;;;;;;;;;5045566;28;20204;-65
2022/08/06 14:57:48;;;;;;;2.85;2.13;;;;;;;;;;5056718;28;20221;-65
2022/08/06 15:00:32;;;;;;;3.30;1.95;;;;;;;;;;5050479;28;20209;-65
2022/08/06 15:03:07;;;;;;;4.38;1.88;;;;;;;;;;5054441;28;20216;-64
2022/08/06 15:05:42;;;;;;;1.70;1.60;;;;;;;;;;5042679;28;20204;-64
2022/08/06 15:08:29;;;;;;;3.80;2.17;;;;;;;;;;5041388;28;20220;-65
2022/08/06 15:10:58;;;;;;;2.10;1.90;;;;;;;;;;5034952;28;20198;-63
2022/08/06 15:13:28;;;;;;;2.05;1.70;;;;;;;;;;5062741;28;20221;-63
2022/08/06 15:16:03;;;;;;;1.50;1.40;;;;;;;;;;5046694;28;20675;-65
2022/08/06 15:18:48;;;;;;;2.10;1.70;;;;;;;;;;5052493;28;20240;-65
2022/08/06 15:21:36;;;;;;;2.10;1.60;;;;;;;;;;5055407;28;20709;-64
2022/08/06 15:24:05;;;;;;;4.03;1.63;;;;;;;;;;5032787;28;20217;-64
2022/08/06 15:26:34;;;;;;;3.15;1.65;;;;;;;;;;5054943;28;20293;-65
2022/08/06 15:29:15;;;;;;;4.15;1.80;;;;;;;;;;5051685;28;20228;-65
2022/08/06 15:31:44;;;;;;;2.20;1.75;;;;;;;;;;5036973;28;20206;-65
2022/08/06 15:34:12;;;;;;;2.90;1.85;;;;;;;;;;5028866;28;20209;-65
2022/08/06 15:36:46;;;;;;;2.50;1.50;;;;;;;;;;5033934;28;20259;-65
2022/08/06 15:39:33;;;;;;;3.75;2.00;;;;;;;;;;5060437;28;20282;-65
2022/08/06 15:42:21;;;;;;;2.13;1.83;;;;;;;;;;5055934;28;20288;-65
2022/08/06 15:44:51;;;;;;;2.85;1.70;;;;;;;;;;5047995;28;20229;-64
2022/08/06 15:47:19;;;;;;;1.67;1.58;;;;;;;;;;5050415;28;20210;-65